PWSweather.com
Personal Weather Stations
Station Observations
DW1039
Liberty & Fairfield Townships, Hamilton, OH 45011

Liberty & Fairfield TownshipsHamilton, OH 45011

Lat: 39.3933, Lon: -84.477

Elevation: 780

Station Type: Davis Vantage Pro2 (Daytime Fan Aspirated)

http://www.lfweathercenter.com/

High Low Average
Temperature 88.6°F31.4°C 74.4°F23.6°C 78.2°F25.7°C
Dew Point 76.4°F24.7°C 68.9°F20.5°C 71.8°F22.1°C
Winds 18.0 mph 29.0 kmh Calm Calm 3.0 mph S4.8 kmh S
Wind Gusts 29.0 mph46.7 kmh -- 8.0 mph12.9 kmh
Humidity 84% 64% 81%
Pressure 29.94 in1013.9 mb 29.81 in1009.5 mb -
Precipitation 0.00 in0.0 mm - -
Hour Temp Dew Point Humidity Winds Wind Gusts Pressure Precip Precip Rate Daily Precip Total
12:00 AM 76.6°F24.8°C 71.1°F21.7°C 83% Calm Calm -- 29.94 in1013.9 mb 0.00 in0.0 mm 0.00 in0.0 mm 0.00 in0.0 mm
12:10 AM 76.6°F24.8°C 71.1°F21.7°C 83% Calm Calm 4.0 mph6.4 kmh 29.94 in1013.9 mb 0.00 in0.0 mm 0.00 in0.0 mm 0.00 in0.0 mm
12:20 AM 76.6°F24.8°C 71.1°F21.7°C 83% Calm Calm 3.0 mph4.8 kmh 29.94 in1013.9 mb 0.00 in0.0 mm 0.00 in0.0 mm 0.00 in0.0 mm
12:30 AM 76.5°F24.7°C 71.0°F21.7°C 83% Calm Calm 1.0 mph1.6 kmh 29.94 in1013.9 mb 0.00 in0.0 mm 0.00 in0.0 mm 0.00 in0.0 mm
12:40 AM 76.6°F24.8°C 71.1°F21.7°C 83% 4.0 mph SE6.4 kmh SE 4.0 mph6.4 kmh 29.94 in1013.9 mb 0.00 in0.0 mm 0.00 in0.0 mm 0.00 in0.0 mm
12:50 AM 76.9°F24.9°C 71.4°F21.9°C 83% Calm Calm 3.0 mph4.8 kmh 29.94 in1013.9 mb 0.00 in0.0 mm 0.00 in0.0 mm 0.00 in0.0 mm
01:00 AM 77.2°F25.1°C 71.6°F22.0°C 83% Calm Calm 4.0 mph6.4 kmh 29.94 in1013.9 mb 0.00 in0.0 mm 0.00 in0.0 mm 0.00 in0.0 mm
01:10 AM 77.2°F25.1°C 71.6°F22.0°C 83% Calm Calm 5.0 mph8.0 kmh 29.93 in1013.5 mb 0.00 in0.0 mm 0.00 in0.0 mm 0.00 in0.0 mm
01:20 AM 77.2°F25.1°C 71.6°F22.0°C 83% Calm Calm 4.0 mph6.4 kmh 29.93 in1013.5 mb 0.00 in0.0 mm 0.00 in0.0 mm 0.00 in0.0 mm
01:30 AM 77.2°F25.1°C 71.6°F22.0°C 83% Calm Calm 5.0 mph8.0 kmh 29.93 in1013.5 mb 0.00 in0.0 mm 0.00 in0.0 mm 0.00 in0.0 mm
01:40 AM 77.2°F25.1°C 71.6°F22.0°C 83% 2.0 mph SE3.2 kmh SE 5.0 mph8.0 kmh 29.93 in1013.5 mb 0.00 in0.0 mm 0.00 in0.0 mm 0.00 in0.0 mm
01:50 AM 77.2°F25.1°C 71.6°F22.0°C 83% Calm Calm 5.0 mph8.0 kmh 29.93 in1013.5 mb 0.00 in0.0 mm 0.00 in0.0 mm 0.00 in0.0 mm
02:00 AM 77.2°F25.1°C 71.6°F22.0°C 83% 3.0 mph SSE4.8 kmh SSE 3.0 mph4.8 kmh 29.92 in1013.2 mb 0.00 in0.0 mm 0.00 in0.0 mm 0.00 in0.0 mm
02:10 AM 77.2°F25.1°C 71.6°F22.0°C 83% 2.0 mph S3.2 kmh S 6.0 mph9.7 kmh 29.92 in1013.2 mb 0.00 in0.0 mm 0.00 in0.0 mm 0.00 in0.0 mm
02:20 AM 77.1°F25.1°C 71.5°F21.9°C 83% 2.0 mph S3.2 kmh S 4.0 mph6.4 kmh 29.92 in1013.2 mb 0.00 in0.0 mm 0.00 in0.0 mm 0.00 in0.0 mm
02:30 AM 76.9°F24.9°C 71.4°F21.9°C 83% Calm Calm 4.0 mph6.4 kmh 29.91 in1012.9 mb 0.00 in0.0 mm 0.00 in0.0 mm 0.00 in0.0 mm
02:40 AM 76.6°F24.8°C 71.1°F21.7°C 83% Calm Calm 1.0 mph1.6 kmh 29.90 in1012.5 mb 0.00 in0.0 mm 0.00 in0.0 mm 0.00 in0.0 mm
02:50 AM 76.2°F24.6°C 70.7°F21.5°C 83% Calm Calm -- 29.90 in1012.5 mb 0.00 in0.0 mm 0.00 in0.0 mm 0.00 in0.0 mm
03:00 AM 75.7°F24.3°C 70.2°F21.2°C 83% Calm Calm 4.0 mph6.4 kmh 29.90 in1012.5 mb 0.00 in0.0 mm 0.00 in0.0 mm 0.00 in0.0 mm
03:10 AM 75.5°F24.2°C 70.3°F21.3°C 84% Calm Calm 2.0 mph3.2 kmh 29.90 in1012.5 mb 0.00 in0.0 mm 0.00 in0.0 mm 0.00 in0.0 mm
03:20 AM 75.5°F24.2°C 70.3°F21.3°C 84% Calm Calm 1.0 mph1.6 kmh 29.90 in1012.5 mb 0.00 in0.0 mm 0.00 in0.0 mm 0.00 in0.0 mm
03:30 AM 75.4°F24.1°C 70.2°F21.2°C 84% Calm Calm 1.0 mph1.6 kmh 29.90 in1012.5 mb 0.00 in0.0 mm 0.00 in0.0 mm 0.00 in0.0 mm
03:40 AM 75.2°F24.0°C 70.0°F21.1°C 84% Calm Calm 4.0 mph6.4 kmh 29.90 in1012.5 mb 0.00 in0.0 mm 0.00 in0.0 mm 0.00 in0.0 mm
03:50 AM 74.8°F23.8°C 69.7°F20.9°C 84% Calm Calm -- 29.90 in1012.5 mb 0.00 in0.0 mm 0.00 in0.0 mm 0.00 in0.0 mm
04:00 AM 74.5°F23.6°C 69.4°F20.8°C 84% Calm Calm -- 29.90 in1012.5 mb 0.00 in0.0 mm 0.00 in0.0 mm 0.00 in0.0 mm
04:10 AM 74.8°F23.8°C 69.7°F20.9°C 84% Calm Calm -- 29.90 in1012.5 mb 0.00 in0.0 mm 0.00 in0.0 mm 0.00 in0.0 mm
04:20 AM 74.9°F23.8°C 69.7°F20.9°C 84% Calm Calm -- 29.90 in1012.5 mb 0.00 in0.0 mm 0.00 in0.0 mm 0.00 in0.0 mm
04:30 AM 75.1°F23.9°C 69.9°F21.1°C 84% Calm Calm 3.0 mph4.8 kmh 29.90 in1012.5 mb 0.00 in0.0 mm 0.00 in0.0 mm 0.00 in0.0 mm
04:40 AM 75.2°F24.0°C 70.0°F21.1°C 84% Calm Calm -- 29.90 in1012.5 mb 0.00 in0.0 mm 0.00 in0.0 mm 0.00 in0.0 mm
04:50 AM 75.3°F24.1°C 70.1°F21.2°C 84% Calm Calm -- 29.90 in1012.5 mb 0.00 in0.0 mm 0.00 in0.0 mm 0.00 in0.0 mm
05:00 AM 75.4°F24.1°C 70.2°F21.2°C 84% Calm Calm 3.0 mph4.8 kmh 29.90 in1012.5 mb 0.00 in0.0 mm 0.00 in0.0 mm 0.00 in0.0 mm
05:10 AM 75.5°F24.2°C 70.3°F21.3°C 84% Calm Calm 5.0 mph8.0 kmh 29.90 in1012.5 mb 0.00 in0.0 mm 0.00 in0.0 mm 0.00 in0.0 mm
05:20 AM 75.4°F24.1°C 69.9°F21.1°C 83% Calm Calm 4.0 mph6.4 kmh 29.91 in1012.9 mb 0.00 in0.0 mm 0.00 in0.0 mm 0.00 in0.0 mm
05:30 AM 75.4°F24.1°C 69.9°F21.1°C 83% 2.0 mph S3.2 kmh S 4.0 mph6.4 kmh 29.91 in1012.9 mb 0.00 in0.0 mm 0.00 in0.0 mm 0.00 in0.0 mm
05:40 AM 75.4°F24.1°C 69.9°F21.1°C 83% Calm Calm 1.0 mph1.6 kmh 29.91 in1012.9 mb 0.00 in0.0 mm 0.00 in0.0 mm 0.00 in0.0 mm
05:50 AM 75.2°F24.0°C 69.7°F20.9°C 83% Calm Calm 5.0 mph8.0 kmh 29.91 in1012.9 mb 0.00 in0.0 mm 0.00 in0.0 mm 0.00 in0.0 mm
06:00 AM 75.1°F23.9°C 69.6°F20.9°C 83% Calm Calm 4.0 mph6.4 kmh 29.91 in1012.9 mb 0.00 in0.0 mm 0.00 in0.0 mm 0.00 in0.0 mm
06:10 AM 75.0°F23.9°C 69.5°F20.8°C 83% 4.0 mph SSE6.4 kmh SSE 6.0 mph9.7 kmh 29.91 in1012.9 mb 0.00 in0.0 mm 0.00 in0.0 mm 0.00 in0.0 mm
06:20 AM 75.2°F24.0°C 70.0°F21.1°C 84% Calm Calm 5.0 mph8.0 kmh 29.91 in1012.9 mb 0.00 in0.0 mm 0.00 in0.0 mm 0.00 in0.0 mm
06:30 AM 75.1°F23.9°C 69.9°F21.1°C 84% Calm Calm 3.0 mph4.8 kmh 29.91 in1012.9 mb 0.00 in0.0 mm 0.00 in0.0 mm 0.00 in0.0 mm
06:40 AM 75.0°F23.9°C 69.8°F21.0°C 84% Calm Calm 3.0 mph4.8 kmh 29.91 in1012.9 mb 0.00 in0.0 mm 0.00 in0.0 mm 0.00 in0.0 mm
06:50 AM 74.8°F23.8°C 69.7°F20.9°C 84% Calm Calm 4.0 mph6.4 kmh 29.91 in1012.9 mb 0.00 in0.0 mm 0.00 in0.0 mm 0.00 in0.0 mm
07:00 AM 74.7°F23.7°C 69.6°F20.9°C 84% Calm Calm 4.0 mph6.4 kmh 29.92 in1013.2 mb 0.00 in0.0 mm 0.00 in0.0 mm 0.00 in0.0 mm
07:10 AM 74.6°F23.7°C 69.5°F20.8°C 84% Calm Calm -- 29.92 in1013.2 mb 0.00 in0.0 mm 0.00 in0.0 mm 0.00 in0.0 mm
07:20 AM 74.5°F23.6°C 69.4°F20.8°C 84% Calm Calm -- 29.92 in1013.2 mb 0.00 in0.0 mm 0.00 in0.0 mm 0.00 in0.0 mm
07:30 AM 74.6°F23.7°C 69.5°F20.8°C 84% Calm Calm 5.0 mph8.0 kmh 29.92 in1013.2 mb 0.00 in0.0 mm 0.00 in0.0 mm 0.00 in0.0 mm
07:40 AM 74.9°F23.8°C 69.7°F20.9°C 84% 4.0 mph S6.4 kmh S 5.0 mph8.0 kmh 29.92 in1013.2 mb 0.00 in0.0 mm 0.00 in0.0 mm 0.00 in0.0 mm
07:50 AM 75.3°F24.1°C 70.1°F21.2°C 84% Calm Calm 4.0 mph6.4 kmh 29.92 in1013.2 mb 0.00 in0.0 mm 0.00 in0.0 mm 0.00 in0.0 mm
08:00 AM 75.6°F24.2°C 70.4°F21.3°C 84% Calm Calm 5.0 mph8.0 kmh 29.92 in1013.2 mb 0.00 in0.0 mm 0.00 in0.0 mm 0.00 in0.0 mm
08:10 AM 75.8°F24.3°C 70.6°F21.4°C 84% Calm Calm 7.0 mph11.3 kmh 29.92 in1013.2 mb 0.00 in0.0 mm 0.00 in0.0 mm 0.00 in0.0 mm
08:20 AM 76.0°F24.4°C 70.8°F21.6°C 84% 1.0 mph S1.6 kmh S 6.0 mph9.7 kmh 29.92 in1013.2 mb 0.00 in0.0 mm 0.00 in0.0 mm 0.00 in0.0 mm
08:30 AM 76.6°F24.8°C 71.4°F21.9°C 84% Calm Calm 7.0 mph11.3 kmh 29.92 in1013.2 mb 0.00 in0.0 mm 0.00 in0.0 mm 0.00 in0.0 mm
08:40 AM 76.8°F24.9°C 71.6°F22.0°C 84% Calm Calm 8.0 mph12.9 kmh 29.92 in1013.2 mb 0.00 in0.0 mm 0.00 in0.0 mm 0.00 in0.0 mm
08:50 AM 77.1°F25.1°C 71.9°F22.2°C 84% 2.0 mph SSE3.2 kmh SSE 7.0 mph11.3 kmh 29.92 in1013.2 mb 0.00 in0.0 mm 0.00 in0.0 mm 0.00 in0.0 mm
09:00 AM 77.6°F25.3°C 72.4°F22.4°C 84% 4.0 mph SSE6.4 kmh SSE 5.0 mph8.0 kmh 29.92 in1013.2 mb 0.00 in0.0 mm 0.00 in0.0 mm 0.00 in0.0 mm
09:10 AM 78.2°F25.7°C 73.0°F22.8°C 84% 7.0 mph S11.3 kmh S 9.0 mph14.5 kmh 29.92 in1013.2 mb 0.00 in0.0 mm 0.00 in0.0 mm 0.00 in0.0 mm
09:20 AM 78.7°F25.9°C 73.1°F22.8°C 83% 10.0 mph S16.1 kmh S 10.0 mph16.1 kmh 29.92 in1013.2 mb 0.00 in0.0 mm 0.00 in0.0 mm 0.00 in0.0 mm
09:30 AM 79.3°F26.3°C 73.7°F23.2°C 83% 3.0 mph SSW4.8 kmh SSW 12.0 mph19.3 kmh 29.91 in1012.9 mb 0.00 in0.0 mm 0.00 in0.0 mm 0.00 in0.0 mm
09:40 AM 80.0°F26.7°C 74.4°F23.6°C 83% 10.0 mph S16.1 kmh S 10.0 mph16.1 kmh 29.91 in1012.9 mb 0.00 in0.0 mm 0.00 in0.0 mm 0.00 in0.0 mm
09:50 AM 80.8°F27.1°C 74.8°F23.8°C 82% 3.0 mph SW4.8 kmh SW 11.0 mph17.7 kmh 29.91 in1012.9 mb 0.00 in0.0 mm 0.00 in0.0 mm 0.00 in0.0 mm
10:00 AM 81.6°F27.6°C 75.2°F24.0°C 81% 4.0 mph WSW6.4 kmh WSW 11.0 mph17.7 kmh 29.91 in1012.9 mb 0.00 in0.0 mm 0.00 in0.0 mm 0.00 in0.0 mm
10:10 AM 81.7°F27.6°C 74.9°F23.8°C 80% 7.0 mph S11.3 kmh S 13.0 mph20.9 kmh 29.91 in1012.9 mb 0.00 in0.0 mm 0.00 in0.0 mm 0.00 in0.0 mm
10:20 AM 81.4°F27.4°C 74.6°F23.7°C 80% 5.0 mph S8.0 kmh S 11.0 mph17.7 kmh 29.91 in1012.9 mb 0.00 in0.0 mm 0.00 in0.0 mm 0.00 in0.0 mm
10:30 AM 82.2°F27.9°C 75.0°F23.9°C 79% 7.0 mph SW11.3 kmh SW 14.0 mph22.5 kmh 29.90 in1012.5 mb 0.00 in0.0 mm 0.00 in0.0 mm 0.00 in0.0 mm
10:40 AM 82.8°F28.2°C 75.6°F24.2°C 79% 6.0 mph SSW9.7 kmh SSW 16.0 mph25.7 kmh 29.89 in1012.2 mb 0.00 in0.0 mm 0.00 in0.0 mm 0.00 in0.0 mm
10:50 AM 83.4°F28.6°C 75.8°F24.3°C 78% 9.0 mph SW14.5 kmh SW 13.0 mph20.9 kmh 29.89 in1012.2 mb 0.00 in0.0 mm 0.00 in0.0 mm 0.00 in0.0 mm
11:00 AM 84.2°F29.0°C 75.8°F24.3°C 76% 11.0 mph S17.7 kmh S 14.0 mph22.5 kmh 29.89 in1012.2 mb 0.00 in0.0 mm 0.00 in0.0 mm 0.00 in0.0 mm
11:10 AM 83.9°F28.8°C 75.5°F24.2°C 76% 7.0 mph SW11.3 kmh SW 19.0 mph30.6 kmh 29.89 in1012.2 mb 0.00 in0.0 mm 0.00 in0.0 mm 0.00 in0.0 mm
11:20 AM 84.8°F29.3°C 76.4°F24.7°C 76% 5.0 mph WSW8.0 kmh WSW 13.0 mph20.9 kmh 29.88 in1011.9 mb 0.00 in0.0 mm 0.00 in0.0 mm 0.00 in0.0 mm
11:30 AM 84.5°F29.2°C 74.9°F23.8°C 73% 2.0 mph SW3.2 kmh SW 14.0 mph22.5 kmh 29.88 in1011.9 mb 0.00 in0.0 mm 0.00 in0.0 mm 0.00 in0.0 mm
11:40 AM 84.2°F29.0°C 75.4°F24.1°C 75% 5.0 mph S8.0 kmh S 17.0 mph27.4 kmh 29.88 in1011.9 mb 0.00 in0.0 mm 0.00 in0.0 mm 0.00 in0.0 mm
11:50 AM 84.2°F29.0°C 75.0°F23.9°C 74% 7.0 mph S11.3 kmh S 14.0 mph22.5 kmh 29.88 in1011.9 mb 0.00 in0.0 mm 0.00 in0.0 mm 0.00 in0.0 mm
12:00 PM 85.7°F29.8°C 76.1°F24.5°C 73% 4.0 mph SW6.4 kmh SW 11.0 mph17.7 kmh 29.88 in1011.9 mb 0.00 in0.0 mm 0.00 in0.0 mm 0.00 in0.0 mm
12:10 PM 86.5°F30.3°C 75.6°F24.2°C 70% 14.0 mph SW22.5 kmh SW 19.0 mph30.6 kmh 29.87 in1011.5 mb 0.00 in0.0 mm 0.00 in0.0 mm 0.00 in0.0 mm
12:20 PM 86.1°F30.1°C 75.2°F24.0°C 70% 4.0 mph S6.4 kmh S 15.0 mph24.1 kmh 29.86 in1011.2 mb 0.00 in0.0 mm 0.00 in0.0 mm 0.00 in0.0 mm
12:30 PM 87.2°F30.7°C 74.5°F23.6°C 66% 2.0 mph WNW3.2 kmh WNW 29.0 mph46.7 kmh 29.86 in1011.2 mb 0.00 in0.0 mm 0.00 in0.0 mm 0.00 in0.0 mm
12:40 PM 87.5°F30.8°C 75.6°F24.2°C 68% 2.0 mph S3.2 kmh S 19.0 mph30.6 kmh 29.85 in1010.8 mb 0.00 in0.0 mm 0.00 in0.0 mm 0.00 in0.0 mm
12:50 PM 88.1°F31.2°C 74.9°F23.8°C 65% 7.0 mph S11.3 kmh S 22.0 mph35.4 kmh 29.85 in1010.8 mb 0.00 in0.0 mm 0.00 in0.0 mm 0.00 in0.0 mm
01:00 PM 88.6°F31.4°C 74.9°F23.8°C 64% 7.0 mph SW11.3 kmh SW 15.0 mph24.1 kmh 29.84 in1010.5 mb 0.00 in0.0 mm 0.00 in0.0 mm 0.00 in0.0 mm
01:10 PM 88.1°F31.2°C 74.4°F23.6°C 64% 6.0 mph WNW9.7 kmh WNW 18.0 mph29.0 kmh 29.84 in1010.5 mb 0.00 in0.0 mm 0.00 in0.0 mm 0.00 in0.0 mm
01:20 PM 87.6°F30.9°C 73.9°F23.3°C 64% 18.0 mph S29.0 kmh S 19.0 mph30.6 kmh 29.83 in1010.2 mb 0.00 in0.0 mm 0.00 in0.0 mm 0.00 in0.0 mm
01:30 PM 88.5°F31.4°C 74.8°F23.8°C 64% 7.0 mph S11.3 kmh S 21.0 mph33.8 kmh 29.83 in1010.2 mb 0.00 in0.0 mm 0.00 in0.0 mm 0.00 in0.0 mm
01:40 PM 87.4°F30.8°C 73.7°F23.2°C 64% 3.0 mph WSW4.8 kmh WSW 18.0 mph29.0 kmh 29.84 in1010.5 mb 0.00 in0.0 mm 0.00 in0.0 mm 0.00 in0.0 mm
01:50 PM 86.6°F30.3°C 73.4°F23.0°C 65% 4.0 mph SSW6.4 kmh SSW 22.0 mph35.4 kmh 29.83 in1010.2 mb 0.00 in0.0 mm 0.00 in0.0 mm 0.00 in0.0 mm
02:00 PM 86.3°F30.2°C 73.6°F23.1°C 66% 4.0 mph SSW6.4 kmh SSW 19.0 mph30.6 kmh 29.82 in1009.8 mb 0.00 in0.0 mm 0.00 in0.0 mm 0.00 in0.0 mm
02:10 PM 86.2°F30.1°C 73.5°F23.1°C 66% 4.0 mph S6.4 kmh S 13.0 mph20.9 kmh 29.82 in1009.8 mb 0.00 in0.0 mm 0.00 in0.0 mm 0.00 in0.0 mm
02:20 PM 86.1°F30.1°C 73.9°F23.3°C 67% 10.0 mph SSW16.1 kmh SSW 25.0 mph40.2 kmh 29.81 in1009.5 mb 0.00 in0.0 mm 0.00 in0.0 mm 0.00 in0.0 mm
02:30 PM 86.1°F30.1°C 73.9°F23.3°C 67% 6.0 mph SW9.7 kmh SW 17.0 mph27.4 kmh 29.82 in1009.8 mb 0.00 in0.0 mm 0.00 in0.0 mm 0.00 in0.0 mm
02:40 PM 80.6°F27.0°C 73.5°F23.1°C 79% 1.0 mph SW1.6 kmh SW 13.0 mph20.9 kmh 29.83 in1010.2 mb 0.17 in4.3 mm 1.02 in25.9 mm 0.17 in4.3 mm
02:50 PM 77.6°F25.3°C 72.0°F22.2°C 83% 7.0 mph SW11.3 kmh SW 18.0 mph29.0 kmh 29.85 in1010.8 mb 0.25 in6.4 mm 0.48 in12.2 mm 0.25 in6.4 mm
03:00 PM 76.2°F24.6°C 71.0°F21.7°C 84% 5.0 mph WSW8.0 kmh WSW 12.0 mph19.3 kmh 29.85 in1010.8 mb 0.48 in12.2 mm 0.28 in7.1 mm 0.48 in12.2 mm
03:10 PM 75.5°F24.2°C 70.3°F21.3°C 84% 2.0 mph SSW3.2 kmh SSW 10.0 mph16.1 kmh 29.84 in1010.5 mb 0.49 in12.4 mm 0.06 in1.5 mm 0.49 in12.4 mm
03:20 PM 74.8°F23.8°C 69.7°F20.9°C 84% Calm Calm 11.0 mph17.7 kmh 29.83 in1010.2 mb 0.50 in12.7 mm 0.06 in1.5 mm 0.50 in12.7 mm
03:30 PM 74.6°F23.7°C 69.5°F20.8°C 84% 2.0 mph SSW3.2 kmh SSW 8.0 mph12.9 kmh 29.83 in1010.2 mb 0.50 in12.7 mm 0.00 in0.0 mm 0.50 in12.7 mm
03:40 PM 74.5°F23.6°C 69.0°F20.6°C 83% Calm Calm 6.0 mph9.7 kmh 29.82 in1009.8 mb 0.33 in8.4 mm 0.00 in0.0 mm 0.50 in12.7 mm
03:50 PM 74.4°F23.6°C 68.9°F20.5°C 83% 7.0 mph S11.3 kmh S 11.0 mph17.7 kmh 29.83 in1010.2 mb 0.28 in7.1 mm 0.00 in0.0 mm 0.50 in12.7 mm
04:00 PM 74.7°F23.7°C 69.2°F20.7°C 83% Calm Calm 9.0 mph14.5 kmh 29.83 in1010.2 mb 0.04 in1.0 mm 0.00 in0.0 mm 0.50 in12.7 mm
04:10 PM 74.8°F23.8°C 69.3°F20.7°C 83% 1.0 mph S1.6 kmh S 6.0 mph9.7 kmh 29.82 in1009.8 mb 0.03 in0.8 mm 0.00 in0.0 mm 0.50 in12.7 mm
04:20 PM 74.9°F23.8°C 69.4°F20.8°C 83% 6.0 mph S9.7 kmh S 11.0 mph17.7 kmh 29.82 in1009.8 mb 0.02 in0.5 mm 0.00 in0.0 mm 0.50 in12.7 mm
04:30 PM 75.2°F24.0°C 69.7°F20.9°C 83% 3.0 mph S4.8 kmh S 5.0 mph8.0 kmh 29.83 in1010.2 mb 0.02 in0.5 mm 0.00 in0.0 mm 0.50 in12.7 mm
04:40 PM 75.5°F24.2°C 70.0°F21.1°C 83% Calm Calm 9.0 mph14.5 kmh 29.83 in1010.2 mb 0.02 in0.5 mm 0.00 in0.0 mm 0.50 in12.7 mm
04:50 PM 75.9°F24.4°C 70.4°F21.3°C 83% Calm Calm 7.0 mph11.3 kmh 29.83 in1010.2 mb 0.01 in0.3 mm 0.00 in0.0 mm 0.50 in12.7 mm
05:00 PM 76.4°F24.7°C 70.9°F21.6°C 83% 4.0 mph SSE6.4 kmh SSE 7.0 mph11.3 kmh 29.83 in1010.2 mb 0.01 in0.3 mm 0.00 in0.0 mm 0.50 in12.7 mm
05:10 PM 76.7°F24.8°C 71.2°F21.8°C 83% 2.0 mph S3.2 kmh S 8.0 mph12.9 kmh 29.82 in1009.8 mb 0.00 in0.0 mm 0.00 in0.0 mm 0.50 in12.7 mm
05:20 PM 77.5°F25.3°C 71.9°F22.2°C 83% 3.0 mph S4.8 kmh S 5.0 mph8.0 kmh 29.82 in1009.8 mb 0.00 in0.0 mm 0.00 in0.0 mm 0.50 in12.7 mm
05:30 PM 78.2°F25.7°C 72.6°F22.6°C 83% 3.0 mph SSE4.8 kmh SSE 7.0 mph11.3 kmh 29.82 in1009.8 mb 0.00 in0.0 mm 0.00 in0.0 mm 0.50 in12.7 mm
05:40 PM 78.8°F26.0°C 73.6°F23.1°C 84% 3.0 mph S4.8 kmh S 6.0 mph9.7 kmh 29.82 in1009.8 mb 0.00 in0.0 mm 0.00 in0.0 mm 0.50 in12.7 mm
05:50 PM 79.5°F26.4°C 74.3°F23.5°C 84% Calm Calm 3.0 mph4.8 kmh 29.82 in1009.8 mb 0.00 in0.0 mm 0.00 in0.0 mm 0.50 in12.7 mm
06:00 PM 80.2°F26.8°C 74.9°F23.8°C 84% Calm Calm 5.0 mph8.0 kmh 29.82 in1009.8 mb 0.00 in0.0 mm 0.00 in0.0 mm 0.50 in12.7 mm
06:10 PM 81.0°F27.2°C 75.4°F24.1°C 83% 3.0 mph SW4.8 kmh SW 5.0 mph8.0 kmh 29.82 in1009.8 mb 0.00 in0.0 mm 0.00 in0.0 mm 0.50 in12.7 mm
06:20 PM 81.8°F27.7°C 75.8°F24.3°C 82% Calm Calm 5.0 mph8.0 kmh 29.82 in1009.8 mb 0.00 in0.0 mm 0.00 in0.0 mm 0.50 in12.7 mm
06:30 PM 81.8°F27.7°C 75.4°F24.1°C 81% 3.0 mph SSW4.8 kmh SSW 10.0 mph16.1 kmh 29.81 in1009.5 mb 0.00 in0.0 mm 0.00 in0.0 mm 0.50 in12.7 mm
06:40 PM 81.8°F27.7°C 75.4°F24.1°C 81% Calm Calm 5.0 mph8.0 kmh 29.81 in1009.5 mb 0.00 in0.0 mm 0.00 in0.0 mm 0.50 in12.7 mm
06:50 PM 81.6°F27.6°C 75.2°F24.0°C 81% Calm Calm 4.0 mph6.4 kmh 29.81 in1009.5 mb 0.00 in0.0 mm 0.00 in0.0 mm 0.50 in12.7 mm
07:00 PM 81.4°F27.4°C 75.4°F24.1°C 82% Calm Calm -- 29.82 in1009.8 mb 0.01 in0.3 mm 0.01 in0.3 mm 0.51 in13.0 mm
07:10 PM 80.6°F27.0°C 75.0°F23.9°C 83% Calm Calm -- 29.81 in1009.5 mb 0.18 in4.6 mm 1.02 in25.9 mm 0.68 in17.3 mm
07:20 PM 79.1°F26.2°C 73.9°F23.3°C 84% 1.0 mph WNW1.6 kmh WNW 3.0 mph4.8 kmh 29.82 in1009.8 mb 0.37 in9.4 mm 1.14 in29.0 mm 0.87 in22.1 mm
07:30 PM 78.4°F25.8°C 73.2°F22.9°C 84% Calm Calm 5.0 mph8.0 kmh 29.81 in1009.5 mb 0.37 in9.4 mm 0.00 in0.0 mm 0.87 in22.1 mm
07:40 PM 78.7°F25.9°C 73.5°F23.1°C 84% Calm Calm -- 29.81 in1009.5 mb 0.37 in9.4 mm 0.00 in0.0 mm 0.87 in22.1 mm
07:50 PM 77.9°F25.5°C 72.7°F22.6°C 84% 4.0 mph S6.4 kmh S 4.0 mph6.4 kmh 29.81 in1009.5 mb 0.37 in9.4 mm 0.00 in0.0 mm 0.87 in22.1 mm
08:00 PM 77.4°F25.2°C 72.2°F22.3°C 84% Calm Calm -- 29.82 in1009.8 mb 0.37 in9.4 mm 0.00 in0.0 mm 0.87 in22.1 mm
08:10 PM 77.0°F25.0°C 71.8°F22.1°C 84% Calm Calm 1.0 mph1.6 kmh 29.82 in1009.8 mb 0.19 in4.8 mm 0.00 in0.0 mm 0.87 in22.1 mm
08:20 PM 76.9°F24.9°C 71.7°F22.1°C 84% Calm Calm 4.0 mph6.4 kmh 29.82 in1009.8 mb 0.01 in0.3 mm 0.00 in0.0 mm 0.87 in22.1 mm
08:30 PM 76.6°F24.8°C 71.4°F21.9°C 84% Calm Calm 3.0 mph4.8 kmh 29.82 in1009.8 mb 0.00 in0.0 mm 0.00 in0.0 mm 0.87 in22.1 mm
08:40 PM 76.6°F24.8°C 71.4°F21.9°C 84% 2.0 mph S3.2 kmh S 4.0 mph6.4 kmh 29.82 in1009.8 mb 0.00 in0.0 mm 0.00 in0.0 mm 0.87 in22.1 mm
08:50 PM 76.3°F24.6°C 71.1°F21.7°C 84% Calm Calm 4.0 mph6.4 kmh 29.82 in1009.8 mb 0.00 in0.0 mm 0.00 in0.0 mm 0.87 in22.1 mm
09:00 PM 76.1°F24.5°C 70.6°F21.4°C 83% Calm Calm 6.0 mph9.7 kmh 29.83 in1010.2 mb 0.00 in0.0 mm 0.00 in0.0 mm 0.87 in22.1 mm
09:10 PM 76.2°F24.6°C 71.0°F21.7°C 84% 5.0 mph SSW8.0 kmh SSW 6.0 mph9.7 kmh 29.83 in1010.2 mb 0.00 in0.0 mm 0.00 in0.0 mm 0.87 in22.1 mm
09:20 PM 76.4°F24.7°C 71.2°F21.8°C 84% 10.0 mph S16.1 kmh S 16.0 mph25.7 kmh 29.83 in1010.2 mb 0.00 in0.0 mm 0.00 in0.0 mm 0.87 in22.1 mm
09:30 PM 76.7°F24.8°C 71.5°F21.9°C 84% 5.0 mph SW8.0 kmh SW 16.0 mph25.7 kmh 29.83 in1010.2 mb 0.00 in0.0 mm 0.00 in0.0 mm 0.87 in22.1 mm
09:40 PM 76.6°F24.8°C 71.4°F21.9°C 84% 2.0 mph S3.2 kmh S 11.0 mph17.7 kmh 29.84 in1010.5 mb 0.00 in0.0 mm 0.00 in0.0 mm 0.87 in22.1 mm
09:50 PM 76.2°F24.6°C 71.0°F21.7°C 84% 6.0 mph S9.7 kmh S 16.0 mph25.7 kmh 29.84 in1010.5 mb 0.00 in0.0 mm 0.00 in0.0 mm 0.87 in22.1 mm
10:00 PM 76.0°F24.4°C 70.8°F21.6°C 84% 1.0 mph S1.6 kmh S 14.0 mph22.5 kmh 29.84 in1010.5 mb 0.00 in0.0 mm 0.00 in0.0 mm 0.87 in22.1 mm
10:10 PM 75.7°F24.3°C 70.5°F21.4°C 84% 7.0 mph SSW11.3 kmh SSW 10.0 mph16.1 kmh 29.84 in1010.5 mb 0.00 in0.0 mm 0.00 in0.0 mm 0.87 in22.1 mm
10:20 PM 75.5°F24.2°C 70.3°F21.3°C 84% 5.0 mph S8.0 kmh S 10.0 mph16.1 kmh 29.84 in1010.5 mb 0.00 in0.0 mm 0.00 in0.0 mm 0.87 in22.1 mm
10:30 PM 75.2°F24.0°C 70.0°F21.1°C 84% Calm Calm 11.0 mph17.7 kmh 29.84 in1010.5 mb 0.01 in0.3 mm 0.06 in1.5 mm 0.88 in22.4 mm
10:40 PM 75.0°F23.9°C 69.8°F21.0°C 84% 5.0 mph S8.0 kmh S 6.0 mph9.7 kmh 29.84 in1010.5 mb 0.01 in0.3 mm 0.00 in0.0 mm 0.88 in22.4 mm
10:50 PM 74.8°F23.8°C 69.7°F20.9°C 84% Calm Calm 6.0 mph9.7 kmh 29.84 in1010.5 mb 0.01 in0.3 mm 0.00 in0.0 mm 0.88 in22.4 mm
11:00 PM 74.6°F23.7°C 69.5°F20.8°C 84% 2.0 mph SSE3.2 kmh SSE 6.0 mph9.7 kmh 29.84 in1010.5 mb 0.01 in0.3 mm 0.00 in0.0 mm 0.88 in22.4 mm
11:10 PM 74.5°F23.6°C 69.4°F20.8°C 84% Calm Calm 10.0 mph16.1 kmh 29.85 in1010.8 mb 0.01 in0.3 mm 0.00 in0.0 mm 0.88 in22.4 mm
11:20 PM 74.6°F23.7°C 69.5°F20.8°C 84% 2.0 mph S3.2 kmh S 10.0 mph16.1 kmh 29.84 in1010.5 mb 0.01 in0.3 mm 0.00 in0.0 mm 0.88 in22.4 mm
11:30 PM 74.6°F23.7°C 69.5°F20.8°C 84% Calm Calm 6.0 mph9.7 kmh 29.84 in1010.5 mb 0.00 in0.0 mm 0.00 in0.0 mm 0.88 in22.4 mm
11:40 PM 74.6°F23.7°C 69.5°F20.8°C 84% Calm Calm 5.0 mph8.0 kmh 29.84 in1010.5 mb 0.00 in0.0 mm 0.00 in0.0 mm 0.88 in22.4 mm
11:50 PM 74.5°F23.6°C 69.4°F20.8°C 84% Calm Calm 3.0 mph4.8 kmh 29.84 in1010.5 mb 0.00 in0.0 mm 0.00 in0.0 mm 0.88 in22.4 mm